Terminal Aerodrome Forecast
Issued by NWS

Home | Current Version | Previous Version | Text Only | Print | Product List | Glossary On
Versions: 1 2 3 4 5 6 7 8 9 10 11 12 13 14 15 16 17 18 19 20 21 22 23 24 25 26 27 28 29 30 31 32 33 34
000
FTUS46 KPQR 251133
TAFONP
TAF
KONP 251133Z 2512/2612 08006KT P6SM SCT025 BKN035
     FM251800 04004KT P6SM SCT050
     FM252200 VRB03KT P6SM BKN060 BKN100
     FM260600 23004KT P6SM OVC050
     FM261000 21011G18KT P6SM OVC050
     FM261100 21014G22KT 4SM -RA OVC025=

USA.gov is the U.S. government's official web portal to all federal, state and local government web resources and services.